sensor_id;sensor_type;location;lat;lon;timestamp;temperature;humidity
85532;SHT35;75970;52.122;5.406;2024-02-23T00:02:20;4.36;95.80
85532;SHT35;75970;52.122;5.406;2024-02-23T00:04:48;4.41;97.28
85532;SHT35;75970;52.122;5.406;2024-02-23T00:07:15;4.47;96.43
85532;SHT35;75970;52.122;5.406;2024-02-23T00:09:42;4.53;96.42
85532;SHT35;75970;52.122;5.406;2024-02-23T00:12:10;4.58;97.16
85532;SHT35;75970;52.122;5.406;2024-02-23T00:14:37;4.63;96.34
85532;SHT35;75970;52.122;5.406;2024-02-23T00:17:05;4.68;96.49
85532;SHT35;75970;52.122;5.406;2024-02-23T00:19:32;4.73;96.87
85532;SHT35;75970;52.122;5.406;2024-02-23T00:21:59;4.78;95.95
85532;SHT35;75970;52.122;5.406;2024-02-23T00:24:27;4.80;95.64
85532;SHT35;75970;52.122;5.406;2024-02-23T00:26:54;4.83;96.45
85532;SHT35;75970;52.122;5.406;2024-02-23T00:29:21;4.86;96.50
85532;SHT35;75970;52.122;5.406;2024-02-23T00:31:49;4.89;96.79
85532;SHT35;75970;52.122;5.406;2024-02-23T00:34:16;4.93;96.79
85532;SHT35;75970;52.122;5.406;2024-02-23T00:36:44;4.99;95.60
85532;SHT35;75970;52.122;5.406;2024-02-23T00:39:14;5.03;97.61
85532;SHT35;75970;52.122;5.406;2024-02-23T00:41:41;5.08;96.56
85532;SHT35;75970;52.122;5.406;2024-02-23T00:44:08;5.11;95.78
85532;SHT35;75970;52.122;5.406;2024-02-23T00:46:35;5.14;96.39
85532;SHT35;75970;52.122;5.406;2024-02-23T00:49:02;5.17;96.51
85532;SHT35;75970;52.122;5.406;2024-02-23T00:51:29;5.19;96.23
85532;SHT35;75970;52.122;5.406;2024-02-23T00:53:57;5.22;94.90
85532;SHT35;75970;52.122;5.406;2024-02-23T00:56:24;5.26;95.17
85532;SHT35;75970;52.122;5.406;2024-02-23T00:59:01;5.29;94.40
85532;SHT35;75970;52.122;5.406;2024-02-23T01:01:29;5.31;93.92
85532;SHT35;75970;52.122;5.406;2024-02-23T01:03:56;5.32;93.61
85532;SHT35;75970;52.122;5.406;2024-02-23T01:06:23;5.32;93.22
85532;SHT35;75970;52.122;5.406;2024-02-23T01:08:52;5.28;93.89
85532;SHT35;75970;52.122;5.406;2024-02-23T01:11:19;5.26;93.87
85532;SHT35;75970;52.122;5.406;2024-02-23T01:13:46;5.26;91.77
85532;SHT35;75970;52.122;5.406;2024-02-23T01:16:16;5.20;91.72
85532;SHT35;75970;52.122;5.406;2024-02-23T01:18:43;5.12;91.57
85532;SHT35;75970;52.122;5.406;2024-02-23T01:21:11;5.01;92.44
85532;SHT35;75970;52.122;5.406;2024-02-23T01:23:38;4.97;90.82
85532;SHT35;75970;52.122;5.406;2024-02-23T01:26:05;4.92;91.95
85532;SHT35;75970;52.122;5.406;2024-02-23T01:28:32;4.82;89.03
85532;SHT35;75970;52.122;5.406;2024-02-23T01:31:00;4.74;90.93
85532;SHT35;75970;52.122;5.406;2024-02-23T01:33:27;4.70;92.09
85532;SHT35;75970;52.122;5.406;2024-02-23T01:35:55;4.65;92.56
85532;SHT35;75970;52.122;5.406;2024-02-23T01:38:24;4.63;94.41
85532;SHT35;75970;52.122;5.406;2024-02-23T01:40:52;4.60;93.71
85532;SHT35;75970;52.122;5.406;2024-02-23T01:43:19;4.60;95.21
85532;SHT35;75970;52.122;5.406;2024-02-23T01:45:46;4.61;94.57
85532;SHT35;75970;52.122;5.406;2024-02-23T01:48:14;4.62;94.54
85532;SHT35;75970;52.122;5.406;2024-02-23T01:50:42;4.64;96.67
85532;SHT35;75970;52.122;5.406;2024-02-23T01:53:12;4.67;96.93
85532;SHT35;75970;52.122;5.406;2024-02-23T01:55:45;4.71;96.51
85532;SHT35;75970;52.122;5.406;2024-02-23T01:58:13;4.75;96.33
85532;SHT35;75970;52.122;5.406;2024-02-23T02:00:40;4.79;96.92
85532;SHT35;75970;52.122;5.406;2024-02-23T02:03:08;4.82;96.33
85532;SHT35;75970;52.122;5.406;2024-02-23T02:05:38;4.87;96.11
85532;SHT35;75970;52.122;5.406;2024-02-23T02:08:07;4.90;96.72
85532;SHT35;75970;52.122;5.406;2024-02-23T02:10:34;4.93;96.50
85532;SHT35;75970;52.122;5.406;2024-02-23T02:13:05;4.94;96.54
85532;SHT35;75970;52.122;5.406;2024-02-23T02:15:53;4.96;95.95
85532;SHT35;75970;52.122;5.406;2024-02-23T02:18:20;4.98;96.17
85532;SHT35;75970;52.122;5.406;2024-02-23T02:20:52;4.97;95.98
85532;SHT35;75970;52.122;5.406;2024-02-23T02:23:20;4.97;95.14
85532;SHT35;75970;52.122;5.406;2024-02-23T02:25:58;4.99;95.09
85532;SHT35;75970;52.122;5.406;2024-02-23T02:28:26;4.97;94.56
85532;SHT35;75970;52.122;5.406;2024-02-23T02:31:13;4.95;94.35
85532;SHT35;75970;52.122;5.406;2024-02-23T02:33:40;4.95;95.67
85532;SHT35;75970;52.122;5.406;2024-02-23T02:36:08;4.95;95.24
85532;SHT35;75970;52.122;5.406;2024-02-23T02:38:35;4.95;93.97
85532;SHT35;75970;52.122;5.406;2024-02-23T02:41:02;4.92;93.60
85532;SHT35;75970;52.122;5.406;2024-02-23T02:43:31;4.90;93.96
85532;SHT35;75970;52.122;5.406;2024-02-23T02:45:58;4.87;93.59
85532;SHT35;75970;52.122;5.406;2024-02-23T02:48:25;4.83;92.98
85532;SHT35;75970;52.122;5.406;2024-02-23T02:50:53;4.79;93.46
85532;SHT35;75970;52.122;5.406;2024-02-23T02:53:20;4.77;94.03
85532;SHT35;75970;52.122;5.406;2024-02-23T02:55:48;4.76;93.78
85532;SHT35;75970;52.122;5.406;2024-02-23T02:58:15;4.77;93.90
85532;SHT35;75970;52.122;5.406;2024-02-23T03:00:42;4.76;92.19
85532;SHT35;75970;52.122;5.406;2024-02-23T03:03:10;4.76;91.78
85532;SHT35;75970;52.122;5.406;2024-02-23T03:05:37;4.72;92.63
85532;SHT35;75970;52.122;5.406;2024-02-23T03:08:04;4.71;93.91
85532;SHT35;75970;52.122;5.406;2024-02-23T03:10:32;4.72;93.24
85532;SHT35;75970;52.122;5.406;2024-02-23T03:12:59;4.72;93.31
85532;SHT35;75970;52.122;5.406;2024-02-23T03:15:26;4.72;94.14
85532;SHT35;75970;52.122;5.406;2024-02-23T03:17:55;4.72;93.07
85532;SHT35;75970;52.122;5.406;2024-02-23T03:20:22;4.74;93.75
85532;SHT35;75970;52.122;5.406;2024-02-23T03:22:49;4.74;93.33
85532;SHT35;75970;52.122;5.406;2024-02-23T03:25:16;4.75;93.15
85532;SHT35;75970;52.122;5.406;2024-02-23T03:27:44;4.73;93.34
85532;SHT35;75970;52.122;5.406;2024-02-23T03:30:11;4.72;91.93
85532;SHT35;75970;52.122;5.406;2024-02-23T03:32:38;4.71;93.18
85532;SHT35;75970;52.122;5.406;2024-02-23T03:35:06;4.70;93.17
85532;SHT35;75970;52.122;5.406;2024-02-23T03:37:35;4.69;92.16
85532;SHT35;75970;52.122;5.406;2024-02-23T03:40:03;4.67;91.77
85532;SHT35;75970;52.122;5.406;2024-02-23T03:42:32;4.64;92.48
85532;SHT35;75970;52.122;5.406;2024-02-23T03:44:59;4.61;91.97
85532;SHT35;75970;52.122;5.406;2024-02-23T03:47:26;4.56;91.84
85532;SHT35;75970;52.122;5.406;2024-02-23T03:49:53;4.53;91.91
85532;SHT35;75970;52.122;5.406;2024-02-23T03:52:21;4.52;92.01
85532;SHT35;75970;52.122;5.406;2024-02-23T03:54:48;4.51;91.33
85532;SHT35;75970;52.122;5.406;2024-02-23T03:57:16;4.49;93.15
85532;SHT35;75970;52.122;5.406;2024-02-23T03:59:55;4.50;93.54
85532;SHT35;75970;52.122;5.406;2024-02-23T04:02:23;4.52;93.41
85532;SHT35;75970;52.122;5.406;2024-02-23T04:04:50;4.53;93.71
85532;SHT35;75970;52.122;5.406;2024-02-23T04:07:17;4.52;93.66
85532;SHT35;75970;52.122;5.406;2024-02-23T04:09:45;4.54;93.29
85532;SHT35;75970;52.122;5.406;2024-02-23T04:12:12;4.53;93.63
85532;SHT35;75970;52.122;5.406;2024-02-23T04:14:39;4.50;92.16
85532;SHT35;75970;52.122;5.406;2024-02-23T04:17:07;4.47;92.47
85532;SHT35;75970;52.122;5.406;2024-02-23T04:19:35;4.42;92.69
85532;SHT35;75970;52.122;5.406;2024-02-23T04:22:02;4.42;92.95
85532;SHT35;75970;52.122;5.406;2024-02-23T04:24:30;4.41;91.19
85532;SHT35;75970;52.122;5.406;2024-02-23T04:26:57;4.40;93.44
85532;SHT35;75970;52.122;5.406;2024-02-23T04:29:24;4.39;92.43
85532;SHT35;75970;52.122;5.406;2024-02-23T04:31:51;4.38;93.00
85532;SHT35;75970;52.122;5.406;2024-02-23T04:34:18;4.38;92.45
85532;SHT35;75970;52.122;5.406;2024-02-23T04:36:45;4.38;91.63
85532;SHT35;75970;52.122;5.406;2024-02-23T04:39:12;4.35;92.68
85532;SHT35;75970;52.122;5.406;2024-02-23T04:41:40;4.33;93.05
85532;SHT35;75970;52.122;5.406;2024-02-23T04:44:07;4.31;92.30
85532;SHT35;75970;52.122;5.406;2024-02-23T04:46:35;4.29;93.08
85532;SHT35;75970;52.122;5.406;2024-02-23T04:49:02;4.28;93.04
85532;SHT35;75970;52.122;5.406;2024-02-23T04:51:30;4.25;93.33
85532;SHT35;75970;52.122;5.406;2024-02-23T04:53:57;4.25;92.54
85532;SHT35;75970;52.122;5.406;2024-02-23T04:56:24;4.27;93.48
85532;SHT35;75970;52.122;5.406;2024-02-23T04:58:51;4.28;93.94
85532;SHT35;75970;52.122;5.406;2024-02-23T05:01:18;4.29;93.25
85532;SHT35;75970;52.122;5.406;2024-02-23T05:03:46;4.32;94.27
85532;SHT35;75970;52.122;5.406;2024-02-23T05:06:13;4.36;92.97
85532;SHT35;75970;52.122;5.406;2024-02-23T05:08:40;4.38;93.22
85532;SHT35;75970;52.122;5.406;2024-02-23T05:11:08;4.41;93.62
85532;SHT35;75970;52.122;5.406;2024-02-23T05:13:35;4.44;94.41
85532;SHT35;75970;52.122;5.406;2024-02-23T05:16:03;4.48;93.58
85532;SHT35;75970;52.122;5.406;2024-02-23T05:18:30;4.52;93.23
85532;SHT35;75970;52.122;5.406;2024-02-23T05:20:57;4.56;93.27
85532;SHT35;75970;52.122;5.406;2024-02-23T05:23:24;4.59;93.26
85532;SHT35;75970;52.122;5.406;2024-02-23T05:25:52;4.61;92.96
85532;SHT35;75970;52.122;5.406;2024-02-23T05:28:19;4.64;93.56
85532;SHT35;75970;52.122;5.406;2024-02-23T05:30:46;4.68;93.44
85532;SHT35;75970;52.122;5.406;2024-02-23T05:33:13;4.70;92.39
85532;SHT35;75970;52.122;5.406;2024-02-23T05:35:41;4.72;92.15
85532;SHT35;75970;52.122;5.406;2024-02-23T05:38:08;4.73;91.63
85532;SHT35;75970;52.122;5.406;2024-02-23T05:40:35;4.75;91.14
85532;SHT35;75970;52.122;5.406;2024-02-23T05:43:03;4.76;92.67
85532;SHT35;75970;52.122;5.406;2024-02-23T05:45:30;4.79;91.51
85532;SHT35;75970;52.122;5.406;2024-02-23T05:47:58;4.81;91.94
85532;SHT35;75970;52.122;5.406;2024-02-23T05:50:25;4.82;91.28
85532;SHT35;75970;52.122;5.406;2024-02-23T05:52:52;4.83;92.11
85532;SHT35;75970;52.122;5.406;2024-02-23T05:55:22;4.84;91.57
85532;SHT35;75970;52.122;5.406;2024-02-23T05:57:50;4.85;91.64
85532;SHT35;75970;52.122;5.406;2024-02-23T06:00:20;4.88;92.05
85532;SHT35;75970;52.122;5.406;2024-02-23T06:02:48;4.90;92.30
85532;SHT35;75970;52.122;5.406;2024-02-23T06:05:15;4.90;92.08
85532;SHT35;75970;52.122;5.406;2024-02-23T06:07:42;4.93;92.71
85532;SHT35;75970;52.122;5.406;2024-02-23T06:10:10;4.95;92.32
85532;SHT35;75970;52.122;5.406;2024-02-23T06:12:38;4.97;92.10
85532;SHT35;75970;52.122;5.406;2024-02-23T06:15:05;4.99;92.24
85532;SHT35;75970;52.122;5.406;2024-02-23T06:17:33;5.03;92.30
85532;SHT35;75970;52.122;5.406;2024-02-23T06:20:00;5.05;91.43
85532;SHT35;75970;52.122;5.406;2024-02-23T06:22:30;5.06;90.81
85532;SHT35;75970;52.122;5.406;2024-02-23T06:24:59;5.07;91.60
85532;SHT35;75970;52.122;5.406;2024-02-23T06:27:26;5.09;91.96
85532;SHT35;75970;52.122;5.406;2024-02-23T06:29:54;5.12;89.30
85532;SHT35;75970;52.122;5.406;2024-02-23T06:32:22;5.12;90.42
85532;SHT35;75970;52.122;5.406;2024-02-23T06:34:50;5.14;88.14
85532;SHT35;75970;52.122;5.406;2024-02-23T06:37:17;5.16;90.25
85532;SHT35;75970;52.122;5.406;2024-02-23T06:39:44;5.16;90.80
85532;SHT35;75970;52.122;5.406;2024-02-23T06:42:16;5.17;88.55
85532;SHT35;75970;52.122;5.406;2024-02-23T06:44:43;5.18;88.70
85532;SHT35;75970;52.122;5.406;2024-02-23T06:47:13;5.20;89.16
85532;SHT35;75970;52.122;5.406;2024-02-23T06:49:43;5.24;89.88
85532;SHT35;75970;52.122;5.406;2024-02-23T06:52:10;5.26;87.66
85532;SHT35;75970;52.122;5.406;2024-02-23T06:54:38;5.29;88.93
85532;SHT35;75970;52.122;5.406;2024-02-23T06:57:05;5.32;88.33
85532;SHT35;75970;52.122;5.406;2024-02-23T06:59:32;5.34;87.53
85532;SHT35;75970;52.122;5.406;2024-02-23T07:02:00;5.37;88.59
85532;SHT35;75970;52.122;5.406;2024-02-23T07:04:27;5.40;88.82
85532;SHT35;75970;52.122;5.406;2024-02-23T07:06:55;5.42;87.94
85532;SHT35;75970;52.122;5.406;2024-02-23T07:09:23;5.42;88.08
85532;SHT35;75970;52.122;5.406;2024-02-23T07:11:50;5.43;87.40
85532;SHT35;75970;52.122;5.406;2024-02-23T07:14:17;5.46;89.28
85532;SHT35;75970;52.122;5.406;2024-02-23T07:16:45;5.49;87.19
85532;SHT35;75970;52.122;5.406;2024-02-23T07:19:12;5.49;85.69
85532;SHT35;75970;52.122;5.406;2024-02-23T07:21:40;5.52;89.58
85532;SHT35;75970;52.122;5.406;2024-02-23T07:24:10;5.55;87.09
85532;SHT35;75970;52.122;5.406;2024-02-23T07:26:37;5.59;86.63
85532;SHT35;75970;52.122;5.406;2024-02-23T07:29:04;5.64;87.96
85532;SHT35;75970;52.122;5.406;2024-02-23T07:31:31;5.66;85.04
85532;SHT35;75970;52.122;5.406;2024-02-23T07:33:59;5.69;86.09
85532;SHT35;75970;52.122;5.406;2024-02-23T07:36:27;5.72;83.81
85532;SHT35;75970;52.122;5.406;2024-02-23T07:38:54;5.75;87.89
85532;SHT35;75970;52.122;5.406;2024-02-23T07:41:22;5.78;87.18
85532;SHT35;75970;52.122;5.406;2024-02-23T07:43:49;5.82;87.64
85532;SHT35;75970;52.122;5.406;2024-02-23T07:46:16;5.86;87.53
85532;SHT35;75970;52.122;5.406;2024-02-23T07:48:43;5.91;87.67
85532;SHT35;75970;52.122;5.406;2024-02-23T07:51:11;5.96;85.55
85532;SHT35;75970;52.122;5.406;2024-02-23T07:53:38;6.00;86.51
85532;SHT35;75970;52.122;5.406;2024-02-23T07:56:07;6.06;87.38
85532;SHT35;75970;52.122;5.406;2024-02-23T07:58:35;6.12;87.08
85532;SHT35;75970;52.122;5.406;2024-02-23T08:01:02;6.15;85.57
85532;SHT35;75970;52.122;5.406;2024-02-23T08:03:29;6.19;84.86
85532;SHT35;75970;52.122;5.406;2024-02-23T08:05:57;6.19;83.28
85532;SHT35;75970;52.122;5.406;2024-02-23T08:08:29;6.21;82.06
85532;SHT35;75970;52.122;5.406;2024-02-23T08:10:59;6.22;85.72
85532;SHT35;75970;52.122;5.406;2024-02-23T08:13:27;6.24;85.57
85532;SHT35;75970;52.122;5.406;2024-02-23T08:15:54;6.24;81.46
85532;SHT35;75970;52.122;5.406;2024-02-23T08:18:21;6.26;84.08
85532;SHT35;75970;52.122;5.406;2024-02-23T08:20:51;6.28;81.78
85532;SHT35;75970;52.122;5.406;2024-02-23T08:23:18;6.29;82.19
85532;SHT35;75970;52.122;5.406;2024-02-23T08:25:47;6.30;84.37
85532;SHT35;75970;52.122;5.406;2024-02-23T08:28:14;6.32;83.70
85532;SHT35;75970;52.122;5.406;2024-02-23T08:30:41;6.32;82.21
85532;SHT35;75970;52.122;5.406;2024-02-23T08:33:08;6.33;83.84
85532;SHT35;75970;52.122;5.406;2024-02-23T08:35:39;6.31;83.33
85532;SHT35;75970;52.122;5.406;2024-02-23T08:38:06;6.30;80.95
85532;SHT35;75970;52.122;5.406;2024-02-23T08:40:34;6.31;83.13
85532;SHT35;75970;52.122;5.406;2024-02-23T08:43:02;6.30;81.10
85532;SHT35;75970;52.122;5.406;2024-02-23T08:45:30;6.29;85.02
85532;SHT35;75970;52.122;5.406;2024-02-23T08:47:57;6.27;82.40
85532;SHT35;75970;52.122;5.406;2024-02-23T08:50:24;6.26;81.00
85532;SHT35;75970;52.122;5.406;2024-02-23T08:52:51;6.25;81.56
85532;SHT35;75970;52.122;5.406;2024-02-23T08:55:18;6.23;85.03
85532;SHT35;75970;52.122;5.406;2024-02-23T08:57:45;6.21;83.28
85532;SHT35;75970;52.122;5.406;2024-02-23T09:00:13;6.21;83.79
85532;SHT35;75970;52.122;5.406;2024-02-23T09:02:44;6.22;83.58
85532;SHT35;75970;52.122;5.406;2024-02-23T09:05:11;6.20;84.47
85532;SHT35;75970;52.122;5.406;2024-02-23T09:07:38;6.20;84.16
85532;SHT35;75970;52.122;5.406;2024-02-23T09:10:08;6.21;85.94
85532;SHT35;75970;52.122;5.406;2024-02-23T09:12:36;6.25;84.80
85532;SHT35;75970;52.122;5.406;2024-02-23T09:15:04;6.29;84.75
85532;SHT35;75970;52.122;5.406;2024-02-23T09:17:32;6.31;83.99
85532;SHT35;75970;52.122;5.406;2024-02-23T09:19:59;6.32;85.75
85532;SHT35;75970;52.122;5.406;2024-02-23T09:22:26;6.34;84.82
85532;SHT35;75970;52.122;5.406;2024-02-23T09:24:54;6.36;83.47
85532;SHT35;75970;52.122;5.406;2024-02-23T09:27:23;6.36;84.42
85532;SHT35;75970;52.122;5.406;2024-02-23T09:29:50;6.38;85.18
85532;SHT35;75970;52.122;5.406;2024-02-23T09:32:17;6.42;83.94
85532;SHT35;75970;52.122;5.406;2024-02-23T09:34:44;6.44;84.62
85532;SHT35;75970;52.122;5.406;2024-02-23T09:37:12;6.46;83.91
85532;SHT35;75970;52.122;5.406;2024-02-23T09:39:39;6.48;84.63
85532;SHT35;75970;52.122;5.406;2024-02-23T09:42:10;6.48;85.16
85532;SHT35;75970;52.122;5.406;2024-02-23T09:44:41;6.48;82.57
85532;SHT35;75970;52.122;5.406;2024-02-23T09:47:13;6.48;82.67
85532;SHT35;75970;52.122;5.406;2024-02-23T09:49:41;6.47;83.65
85532;SHT35;75970;52.122;5.406;2024-02-23T09:52:09;6.47;82.56
85532;SHT35;75970;52.122;5.406;2024-02-23T09:54:37;6.43;82.27
85532;SHT35;75970;52.122;5.406;2024-02-23T09:57:08;6.38;82.86
85532;SHT35;75970;52.122;5.406;2024-02-23T09:59:36;6.38;82.86
85532;SHT35;75970;52.122;5.406;2024-02-23T10:02:08;6.39;84.42
85532;SHT35;75970;52.122;5.406;2024-02-23T10:04:39;6.41;85.45
85532;SHT35;75970;52.122;5.406;2024-02-23T10:07:07;6.51;85.86
85532;SHT35;75970;52.122;5.406;2024-02-23T10:09:35;6.58;84.20
85532;SHT35;75970;52.122;5.406;2024-02-23T10:12:03;6.68;84.08
85532;SHT35;75970;52.122;5.406;2024-02-23T10:14:30;6.77;84.24
85532;SHT35;75970;52.122;5.406;2024-02-23T10:16:57;6.82;84.92
85532;SHT35;75970;52.122;5.406;2024-02-23T10:19:25;6.87;85.99
85532;SHT35;75970;52.122;5.406;2024-02-23T10:21:59;6.93;83.60
85532;SHT35;75970;52.122;5.406;2024-02-23T10:24:26;6.99;84.07
85532;SHT35;75970;52.122;5.406;2024-02-23T10:26:53;7.04;84.54
85532;SHT35;75970;52.122;5.406;2024-02-23T10:29:23;7.07;82.83
85532;SHT35;75970;52.122;5.406;2024-02-23T10:31:51;7.10;82.83
85532;SHT35;75970;52.122;5.406;2024-02-23T10:34:20;7.10;83.51
85532;SHT35;75970;52.122;5.406;2024-02-23T10:36:47;7.12;83.22
85532;SHT35;75970;52.122;5.406;2024-02-23T10:39:18;7.11;83.90
85532;SHT35;75970;52.122;5.406;2024-02-23T10:42:03;7.08;84.64
85532;SHT35;75970;52.122;5.406;2024-02-23T10:44:31;7.07;80.85
85532;SHT35;75970;52.122;5.406;2024-02-23T10:47:00;7.02;82.69
85532;SHT35;75970;52.122;5.406;2024-02-23T10:49:27;6.99;83.44
85532;SHT35;75970;52.122;5.406;2024-02-23T10:51:56;6.98;81.80
85532;SHT35;75970;52.122;5.406;2024-02-23T10:54:24;6.94;83.12
85532;SHT35;75970;52.122;5.406;2024-02-23T10:56:53;6.92;82.50
85532;SHT35;75970;52.122;5.406;2024-02-23T10:59:23;6.91;82.58
85532;SHT35;75970;52.122;5.406;2024-02-23T11:01:54;6.93;84.60
85532;SHT35;75970;52.122;5.406;2024-02-23T11:04:25;6.97;85.24
85532;SHT35;75970;52.122;5.406;2024-02-23T11:06:54;7.09;84.19
85532;SHT35;75970;52.122;5.406;2024-02-23T11:09:24;7.23;82.13
85532;SHT35;75970;52.122;5.406;2024-02-23T11:11:57;7.36;82.91
85532;SHT35;75970;52.122;5.406;2024-02-23T11:14:36;7.50;82.50
85532;SHT35;75970;52.122;5.406;2024-02-23T11:17:04;7.58;80.10
85532;SHT35;75970;52.122;5.406;2024-02-23T11:19:33;7.64;81.41
85532;SHT35;75970;52.122;5.406;2024-02-23T11:22:02;7.70;79.36
85532;SHT35;75970;52.122;5.406;2024-02-23T11:24:31;7.79;80.72
85532;SHT35;75970;52.122;5.406;2024-02-23T11:26:59;7.95;82.60
85532;SHT35;75970;52.122;5.406;2024-02-23T11:29:29;8.12;81.89
85532;SHT35;75970;52.122;5.406;2024-02-23T11:31:57;8.19;80.04
85532;SHT35;75970;52.122;5.406;2024-02-23T11:34:28;8.26;80.67
85532;SHT35;75970;52.122;5.406;2024-02-23T11:36:56;8.32;80.05
85532;SHT35;75970;52.122;5.406;2024-02-23T11:39:26;8.41;78.25
85532;SHT35;75970;52.122;5.406;2024-02-23T11:41:54;8.50;79.30
85532;SHT35;75970;52.122;5.406;2024-02-23T11:44:21;8.63;76.46
85532;SHT35;75970;52.122;5.406;2024-02-23T11:46:49;8.64;78.14
85532;SHT35;75970;52.122;5.406;2024-02-23T11:49:16;8.71;78.75
85532;SHT35;75970;52.122;5.406;2024-02-23T11:51:43;8.84;76.95
85532;SHT35;75970;52.122;5.406;2024-02-23T11:54:11;8.88;76.18
85532;SHT35;75970;52.122;5.406;2024-02-23T11:56:40;8.90;77.97
85532;SHT35;75970;52.122;5.406;2024-02-23T11:59:08;8.88;77.29
85532;SHT35;75970;52.122;5.406;2024-02-23T12:01:36;8.89;75.06
85532;SHT35;75970;52.122;5.406;2024-02-23T12:04:03;8.87;75.03
85532;SHT35;75970;52.122;5.406;2024-02-23T12:06:31;8.87;74.84
85532;SHT35;75970;52.122;5.406;2024-02-23T12:09:01;8.86;75.40
85532;SHT35;75970;52.122;5.406;2024-02-23T12:11:29;8.86;75.41
85532;SHT35;75970;52.122;5.406;2024-02-23T12:13:56;8.82;76.23
85532;SHT35;75970;52.122;5.406;2024-02-23T12:16:26;8.78;75.21
85532;SHT35;75970;52.122;5.406;2024-02-23T12:18:54;8.77;75.23
85532;SHT35;75970;52.122;5.406;2024-02-23T12:21:23;8.78;74.96
85532;SHT35;75970;52.122;5.406;2024-02-23T12:23:52;8.78;76.11
85532;SHT35;75970;52.122;5.406;2024-02-23T12:26:20;8.78;78.21
85532;SHT35;75970;52.122;5.406;2024-02-23T12:28:48;8.82;74.47
85532;SHT35;75970;52.122;5.406;2024-02-23T12:31:15;8.86;75.40
85532;SHT35;75970;52.122;5.406;2024-02-23T12:33:42;9.01;77.89
85532;SHT35;75970;52.122;5.406;2024-02-23T12:36:15;9.07;76.77
85532;SHT35;75970;52.122;5.406;2024-02-23T12:38:42;9.07;72.53
85532;SHT35;75970;52.122;5.406;2024-02-23T12:41:10;9.04;73.91
85532;SHT35;75970;52.122;5.406;2024-02-23T12:43:38;9.04;74.61
85532;SHT35;75970;52.122;5.406;2024-02-23T12:46:08;9.07;74.76
85532;SHT35;75970;52.122;5.406;2024-02-23T12:48:35;9.08;74.83
85532;SHT35;75970;52.122;5.406;2024-02-23T12:51:03;9.12;71.61
85532;SHT35;75970;52.122;5.406;2024-02-23T12:53:41;9.12;73.27
85532;SHT35;75970;52.122;5.406;2024-02-23T12:56:10;9.10;72.06
85532;SHT35;75970;52.122;5.406;2024-02-23T12:58:40;9.08;74.78
85532;SHT35;75970;52.122;5.406;2024-02-23T13:01:08;9.05;71.09
85532;SHT35;75970;52.122;5.406;2024-02-23T13:03:44;9.04;74.39
85532;SHT35;75970;52.122;5.406;2024-02-23T13:06:11;9.09;74.78
85532;SHT35;75970;52.122;5.406;2024-02-23T13:08:40;9.21;76.57
85532;SHT35;75970;52.122;5.406;2024-02-23T13:11:09;9.32;72.51
85532;SHT35;75970;52.122;5.406;2024-02-23T13:13:37;9.40;69.31
85532;SHT35;75970;52.122;5.406;2024-02-23T13:16:07;9.46;73.74
85532;SHT35;75970;52.122;5.406;2024-02-23T13:18:35;9.49;70.12
85532;SHT35;75970;52.122;5.406;2024-02-23T13:21:02;9.54;70.87
85532;SHT35;75970;52.122;5.406;2024-02-23T13:23:31;9.54;73.67
85532;SHT35;75970;52.122;5.406;2024-02-23T13:25:58;9.48;73.59
85532;SHT35;75970;52.122;5.406;2024-02-23T13:28:25;9.41;73.08
85532;SHT35;75970;52.122;5.406;2024-02-23T13:30:52;9.41;70.74
85532;SHT35;75970;52.122;5.406;2024-02-23T13:33:19;9.42;72.98
85532;SHT35;75970;52.122;5.406;2024-02-23T13:35:48;9.45;72.82
85532;SHT35;75970;52.122;5.406;2024-02-23T13:38:15;9.53;70.65
85532;SHT35;75970;52.122;5.406;2024-02-23T13:40:42;9.61;73.56
85532;SHT35;75970;52.122;5.406;2024-02-23T13:43:10;9.72;72.85
85532;SHT35;75970;52.122;5.406;2024-02-23T13:46:03;9.78;74.11
85532;SHT35;75970;52.122;5.406;2024-02-23T13:48:31;9.86;71.74
85532;SHT35;75970;52.122;5.406;2024-02-23T13:50:59;9.90;71.77
85532;SHT35;75970;52.122;5.406;2024-02-23T13:53:31;9.99;70.86
85532;SHT35;75970;52.122;5.406;2024-02-23T13:55:59;10.29;70.12
85532;SHT35;75970;52.122;5.406;2024-02-23T13:58:27;10.58;71.53
85532;SHT35;75970;52.122;5.406;2024-02-23T14:00:55;10.59;66.65
85532;SHT35;75970;52.122;5.406;2024-02-23T14:03:23;10.62;68.67
85532;SHT35;75970;52.122;5.406;2024-02-23T14:05:50;10.77;71.50
85532;SHT35;75970;52.122;5.406;2024-02-23T14:08:17;10.85;66.71
85532;SHT35;75970;52.122;5.406;2024-02-23T14:10:44;10.92;67.52
85532;SHT35;75970;52.122;5.406;2024-02-23T14:13:13;10.96;67.05
85532;SHT35;75970;52.122;5.406;2024-02-23T14:15:40;10.88;71.18
85532;SHT35;75970;52.122;5.406;2024-02-23T14:18:07;10.93;69.50
85532;SHT35;75970;52.122;5.406;2024-02-23T14:20:35;10.92;67.77
85532;SHT35;75970;52.122;5.406;2024-02-23T14:23:02;10.90;67.99
85532;SHT35;75970;52.122;5.406;2024-02-23T14:25:29;10.94;67.16
85532;SHT35;75970;52.122;5.406;2024-02-23T14:27:57;10.93;68.04
85532;SHT35;75970;52.122;5.406;2024-02-23T14:30:24;10.88;68.88
85532;SHT35;75970;52.122;5.406;2024-02-23T14:32:51;10.87;68.19
85532;SHT35;75970;52.122;5.406;2024-02-23T14:35:18;10.83;69.81
85532;SHT35;75970;52.122;5.406;2024-02-23T14:37:46;10.80;67.44
85532;SHT35;75970;52.122;5.406;2024-02-23T14:40:13;10.77;69.45
85532;SHT35;75970;52.122;5.406;2024-02-23T14:42:43;10.66;66.34
85532;SHT35;75970;52.122;5.406;2024-02-23T14:45:10;10.60;69.42
85532;SHT35;75970;52.122;5.406;2024-02-23T14:47:39;10.57;67.77
85532;SHT35;75970;52.122;5.406;2024-02-23T14:50:12;10.55;66.90
85532;SHT35;75970;52.122;5.406;2024-02-23T14:52:40;10.49;65.75
85532;SHT35;75970;52.122;5.406;2024-02-23T14:55:07;10.40;64.81
85532;SHT35;75970;52.122;5.406;2024-02-23T14:57:38;10.32;67.49
85532;SHT35;75970;52.122;5.406;2024-02-23T15:00:06;10.27;68.86
85532;SHT35;75970;52.122;5.406;2024-02-23T15:02:33;10.15;68.45
85532;SHT35;75970;52.122;5.406;2024-02-23T15:05:01;10.07;67.54
85532;SHT35;75970;52.122;5.406;2024-02-23T15:07:28;9.98;67.44
85532;SHT35;75970;52.122;5.406;2024-02-23T15:09:55;9.89;67.78
85532;SHT35;75970;52.122;5.406;2024-02-23T15:12:23;9.86;68.64
85532;SHT35;75970;52.122;5.406;2024-02-23T15:14:51;9.84;69.14
85532;SHT35;75970;52.122;5.406;2024-02-23T15:17:19;9.82;67.87
85532;SHT35;75970;52.122;5.406;2024-02-23T15:19:46;9.81;66.83
85532;SHT35;75970;52.122;5.406;2024-02-23T15:22:14;9.76;69.77
85532;SHT35;75970;52.122;5.406;2024-02-23T15:24:42;9.72;68.52
85532;SHT35;75970;52.122;5.406;2024-02-23T15:27:12;9.68;69.41
85532;SHT35;75970;52.122;5.406;2024-02-23T15:29:39;9.64;68.49
85532;SHT35;75970;52.122;5.406;2024-02-23T15:32:07;9.60;72.10
85532;SHT35;75970;52.122;5.406;2024-02-23T15:34:34;9.54;69.34
85532;SHT35;75970;52.122;5.406;2024-02-23T15:37:02;9.46;70.93
85532;SHT35;75970;52.122;5.406;2024-02-23T15:39:33;9.38;69.97
85532;SHT35;75970;52.122;5.406;2024-02-23T15:42:02;9.32;70.75
85532;SHT35;75970;52.122;5.406;2024-02-23T15:44:29;9.21;71.29
85532;SHT35;75970;52.122;5.406;2024-02-23T15:46:57;9.20;71.75
85532;SHT35;75970;52.122;5.406;2024-02-23T15:49:24;9.16;70.89
85532;SHT35;75970;52.122;5.406;2024-02-23T15:52:12;9.13;71.19